Terminal Aerodrome Forecast
Issued by NWS

Home | Current Version | Previous Version | Text Only | Print | Product List | Glossary On
Versions: 1 2 3 4 5 6 7 8 9 10 11 12 13 14 15 16
808
FTUS43 KABR 251120
TAFATY
TAF
KATY 251120Z 2512/2612 16012KT P6SM SKC
     FM252300 08007KT P6SM -SHRA VCTS BKN070CB
     FM260600 06005KT P6SM SHRA VCTS OVC040CB
     FM261100 04004KT P6SM OVC035=

USA.gov is the U.S. government's official web portal to all federal, state and local government web resources and services.